Latest Weather Observations for Katanning RS

IDW60801

Issued at 2:33 pm WST Thursday 30 March 2017 (issued every 30 minutes, with the page automatically refreshed every 10 minutes)

About weather observations | Map of weather stations | Latest weather observations for WA | Other Formats
Station Details ID: 010916 Name: KATANNING Lat: -33.69 Lon: 117.61 Height: 320.0 m
Data from the previous 72 hours. | See also: Recent months at Katanning RS
Date/Time
WST
Temp
°C
App
Temp
°C
Dew
Point
°C
Rel
Hum
%
Delta-T
°C
Wind Press
QNH
hPa
Press
MSL
hPa
Rain since
9am
mm
Dir  Spd
km/h
Gust
km/h
Spd
kts
Gust
kts
30/02:30pm 22.1 19.3 3.3 29 9.1 ENE 7 17 4 9 1023.0 1021.9 0.0
30/02:00pm 22.4 20.3 1.4 25 9.8 WSW 2 7 1 4 1023.3 1022.2 0.0
30/01:30pm 21.6 19.6 4.2 32 8.6 WSW 4 9 2 5 1023.5 1022.4 0.0
30/01:00pm 22.0 19.8 5.4 34 8.4 NNW 6 13 3 7 1023.8 1022.7 0.0
30/12:30pm 21.1 17.8 4.6 34 8.2 NNW 11 19 6 10 1024.0 1022.9 0.0
30/12:00pm 20.1 17.4 5.4 38 7.3 N 9 17 5 9 1024.4 1023.3 0.0
30/11:30am 19.5 15.8 6.3 42 6.7 N 15 22 8 12 1024.8 1023.7 0.0
30/11:00am 18.1 14.2 5.3 43 6.3 NNE 15 22 8 12 1025.3 1024.3 0.0
30/10:30am 16.9 13.4 5.5 47 5.6 N 13 20 7 11 1025.9 1024.8 0.0
30/10:00am 16.6 12.4 5.6 48 5.4 NNE 17 26 9 14 1026.2 1025.1 0.0
30/09:30am 15.7 11.2 6.2 53 4.7 NNE 19 28 10 15 1026.5 1025.4 0.0
30/09:00am 14.0 9.2 5.6 57 4.0 NE 20 26 11 14 1026.8 1025.7 0.0
30/08:30am 12.7 8.5 5.8 63 3.3 NE 17 24 9 13 1026.8 1025.7 0.0
30/08:00am 10.6 7.9 5.8 72 2.2 NE 9 15 5 8 1026.9 1025.8 0.0
30/07:30am 8.3 6.1 5.2 81 1.4 ENE 6 7 3 4 1027.0 1025.9 0.0
30/07:00am 6.8 4.4 4.5 85 1.0 ENE 6 6 3 3 1026.9 1025.8 0.0
30/06:30am 5.6 2.8 3.3 85 1.0 E 7 7 4 4 1026.7 1025.6 0.0
30/06:00am 5.6 2.8 3.3 85 1.0 E 7 9 4 5 1026.7 1025.6 0.0
30/05:30am 5.6 3.0 3.3 85 1.0 E 6 7 3 4 1026.7 1025.6 0.0
30/05:00am 5.3 2.6 2.8 84 1.0 E 6 6 3 3 1026.7 1025.6 0.0
30/04:30am 5.3 2.6 2.5 82 1.2 ENE 6 7 3 4 1026.6 1025.5 0.0
30/04:00am 6.7 4.2 3.7 81 1.3 E 6 7 3 4 1026.6 1025.5 0.0
30/03:30am 6.9 4.2 3.7 80 1.4 E 7 9 4 5 1026.5 1025.4 0.0
30/03:00am 6.9 4.2 3.9 81 1.3 ESE 7 9 4 5 1026.6 1025.5 0.0
30/02:30am 7.0 4.5 3.8 80 1.4 E 6 9 3 5 1026.7 1025.6 0.0
30/02:00am 7.2 4.7 3.8 79 1.5 E 6 7 3 4 1027.0 1025.9 0.0
30/01:30am 7.3 5.2 3.7 78 1.6 ENE 4 4 2 2 1027.3 1026.2 0.0
30/01:00am 7.6 5.1 3.6 76 1.7 E 6 6 3 3 1027.1 1026.0 0.0
30/12:30am 8.3 5.8 3.9 74 1.9 E 6 7 3 4 1027.1 1026.0 0.0
30/12:00am 8.6 6.0 4.0 73 2.0 ESE 7 9 4 5 1027.1 1026.0 0.0
 
Date/Time
WST
Temp
°C
App
Temp
°C
Dew
Point
°C
Rel
Hum
%
Delta-T
°C
Wind Press
QNH
hPa
Press
MSL
hPa
Rain since
9am
mm
Dir  Spd
km/h
Gust
km/h
Spd
kts
Gust
kts
29/11:30pm 9.0 6.4 4.2 72 2.1 ESE 7 11 4 6 1027.2 1026.1 0.0
29/11:00pm 9.3 6.3 4.1 70 2.3 ESE 9 13 5 7 1027.4 1026.3 0.0
29/10:30pm 9.6 6.2 4.0 68 2.5 ESE 11 15 6 8 1027.4 1026.3 0.0
29/10:00pm 10.0 6.6 4.0 66 2.7 ESE 11 17 6 9 1027.6 1026.6 0.0
29/09:30pm 10.5 6.4 4.2 65 2.9 ESE 15 24 8 13 1027.7 1026.7 0.0
29/09:00pm 10.9 6.8 4.1 63 3.1 ESE 15 24 8 13 1027.7 1026.7 0.0
29/08:30pm 11.6 6.5 4.1 60 3.4 ESE 20 28 11 15 1027.5 1026.4 0.0
29/08:00pm 12.1 7.0 4.1 58 3.6 ESE 20 28 11 15 1027.3 1026.2 0.0
29/07:30pm 12.7 7.7 3.6 54 4.1 ESE 19 26 10 14 1027.0 1025.9 0.0
29/07:00pm 13.6 8.9 3.1 49 4.7 ESE 17 26 9 14 1026.9 1025.8 0.0
29/06:30pm 14.4 9.2 2.6 45 5.3 ESE 19 26 10 14 1026.3 1025.2 0.0
29/06:00pm 15.4 10.0 2.6 42 5.8 ESE 20 32 11 17 1026.1 1025.0 0.0
29/05:30pm 16.5 11.3 2.5 39 6.4 ESE 19 26 10 14 1025.9 1024.8 0.0
29/05:00pm 17.4 12.5 2.2 36 7.0 ESE 17 24 9 13 1025.8 1024.7 0.0
29/04:30pm 18.0 12.4 1.5 33 7.5 ESE 20 28 11 15 1025.8 1024.7 0.0
29/04:00pm 18.3 12.6 0.4 30 7.9 ESE 20 33 11 18 1025.8 1024.7 0.0
29/03:30pm 19.1 13.8 1.6 31 8.1 ESE 19 30 10 16 1025.7 1024.6 0.0
29/03:00pm 19.1 13.6 2.0 32 7.9 ESE 20 32 11 17 1025.8 1024.7 0.0
29/02:30pm 18.4 13.4 1.4 32 7.8 ESE 17 33 9 18 1025.8 1024.7 0.0
29/02:00pm 18.8 13.6 2.2 33 7.7 ESE 19 32 10 17 1025.9 1024.8 0.0
29/01:30pm 18.7 13.5 2.5 34 7.6 ESE 19 32 10 17 1026.2 1025.1 0.0
29/01:00pm 17.8 12.7 2.9 37 6.9 SE 19 28 10 15 1026.5 1025.4 0.0
29/12:30pm 17.6 13.6 3.1 38 6.8 ESE 13 28 7 15 1026.7 1025.6 0.0
29/12:00pm 16.6 11.7 4.0 43 5.9 SE 19 28 10 15 1026.9 1025.8 0.0
29/11:30am 15.8 10.7 2.9 42 5.9 SSE 19 28 10 15 1027.2 1026.1 0.0
29/11:00am 15.7 10.6 2.8 42 5.9 ESE 19 30 10 16 1027.5 1026.4 0.0
29/10:30am 14.9 9.8 2.8 44 5.5 ESE 19 28 10 15 1027.7 1026.7 0.0
29/10:00am 14.4 8.7 2.9 46 5.2 ESE 22 39 12 21 1027.8 1026.8 0.0
29/09:30am 14.1 9.1 3.6 49 4.8 ESE 19 32 10 17 1027.6 1026.6 0.0
29/09:00am 13.1 8.1 3.7 53 4.3 SE 19 28 10 15 1027.5 1026.4 0.4
29/08:30am 12.4 7.7 5.3 62 3.3 SE 19 26 10 14 1027.3 1026.2 0.4
29/08:00am 10.9 8.2 5.7 70 2.4 SSE 9 15 5 8 1026.8 1025.7 0.4
29/07:30am 9.5 6.7 5.1 74 2.0 S 9 13 5 7 1026.4 1025.3 0.4
29/07:00am 8.3 5.9 5.4 82 1.3 S 7 9 4 5 1026.1 1025.0 0.4
29/06:30am 7.2 4.6 4.3 82 1.3 S 7 7 4 4 1025.7 1024.6 0.4
29/06:00am 7.3 4.7 4.1 80 1.4 S 7 9 4 5 1025.3 1024.3 0.4
29/05:30am 7.8 5.8 4.4 79 1.5 SSE 4 7 2 4 1025.1 1024.1 0.4
29/05:00am 7.9 5.5 4.5 79 1.5 SSE 6 6 3 3 1024.8 1023.7 0.4
29/04:30am 7.9 5.6 4.8 81 1.4 S 6 11 3 6 1024.7 1023.6 0.4
29/04:00am 8.3 6.1 5.2 81 1.4 SSE 6 6 3 3 1024.2 1023.1 0.4
29/03:30am 8.7 6.4 5.6 81 1.4 SSE 7 9 4 5 1024.0 1022.9 0.4
29/03:00am 9.3 7.1 6.0 80 1.5 S 7 13 4 7 1023.9 1022.8 0.4
29/02:30am 9.9 8.1 7.0 82 1.4 S 6 11 3 6 1023.6 1022.5 0.4
29/02:00am 9.5 7.3 6.4 81 1.5 S 7 9 4 5 1023.6 1022.5 0.4
29/01:30am 9.5 7.5 6.4 81 1.5 S 6 7 3 4 1023.3 1022.2 0.4
29/01:00am 9.7 7.5 6.4 80 1.6 S 7 9 4 5 1023.3 1022.2 0.4
29/12:30am 10.2 7.8 6.9 80 1.6 S 9 13 5 7 1023.0 1021.9 0.4
29/12:00am 10.5 8.2 7.6 82 1.4 S 9 13 5 7 1022.7 1021.6 0.4
 
Date/Time
WST
Temp
°C
App
Temp
°C
Dew
Point
°C
Rel
Hum
%
Delta-T
°C
Wind Press
QNH
hPa
Press
MSL
hPa
Rain since
9am
mm
Dir  Spd
km/h
Gust
km/h
Spd
kts
Gust
kts
28/11:30pm 11.0 8.4 7.9 81 1.5 S 11 15 6 8 1022.5 1021.4 0.4
28/11:00pm 11.5 9.0 8.2 80 1.6 S 11 19 6 10 1022.1 1021.1 0.4
28/10:30pm 12.0 9.2 8.5 79 1.8 S 13 19 7 10 1021.9 1020.8 0.4
28/10:00pm 12.6 9.2 9.2 80 1.7 S 17 24 9 13 1021.8 1020.7 0.4
28/09:30pm 12.8 9.8 9.4 80 1.8 S 15 24 8 13 1021.7 1020.6 0.4
28/09:00pm 13.0 9.2 9.8 81 1.7 S 20 30 11 16 1021.8 1020.7 0.4
28/08:30pm 12.9 9.9 10.6 86 1.2 S 17 26 9 14 1021.5 1020.4 0.4
28/08:00pm 12.8 9.4 10.5 86 1.2 S 19 33 10 18 1020.9 1019.8 0.4
28/07:42pm 13.7 8.6 10.7 82 1.6 SSW 28 48 15 26 1020.4 1019.3 0.4
28/07:30pm 16.3 11.3 9.7 65 3.5 SSW 26 33 14 18 1019.9 1018.8 0.0
28/07:00pm 17.5 14.3 8.6 56 4.6 SSW 15 22 8 12 1019.2 1018.0 0.0
28/06:30pm 17.3 14.0 8.2 55 4.7 SSW 15 20 8 11 1018.6 1017.5 0.0
28/06:00pm 18.1 13.8 7.8 51 5.3 SSW 20 30 11 16 1018.3 1017.2 0.0
28/05:30pm 19.3 15.0 7.7 47 6.0 SSW 20 32 11 17 1017.9 1016.8 0.0
28/05:00pm 20.2 15.2 8.2 46 6.3 SSW 24 35 13 19 1017.5 1016.4 0.0
28/04:30pm 21.8 17.5 8.0 41 7.3 SW 20 28 11 15 1017.2 1016.1 0.0
28/04:00pm 22.3 18.1 7.3 38 7.9 WSW 19 32 10 17 1017.0 1015.9 0.0
28/03:30pm 22.2 18.0 8.3 41 7.4 SW 20 35 11 19 1016.7 1015.6 0.0
28/03:00pm 22.5 18.5 8.2 40 7.6 SW 19 32 10 17 1016.5 1015.3 0.0
28/02:30pm 22.1 17.4 7.9 40 7.5 WSW 22 32 12 17 1016.4 1015.2 0.0
28/02:00pm 22.1 18.3 8.9 43 7.1 W 19 32 10 17 1016.7 1015.6 0.0
28/01:30pm 21.8 17.5 9.3 45 6.8 W 22 33 12 18 1016.9 1015.8 0.0
28/01:00pm 21.2 17.5 9.4 47 6.4 W 19 30 10 16 1017.2 1016.1 0.0
28/12:30pm 20.9 16.8 10.1 50 5.9 W 22 30 12 16 1017.5 1016.4 0.0
28/12:00pm 20.1 16.2 10.8 55 5.1 W 22 30 12 16 1018.0 1016.9 0.0
28/11:30am 18.3 15.1 11.1 63 4.0 WSW 19 30 10 16 1018.4 1017.3 0.0
28/11:00am 17.7 14.5 11.3 66 3.5 WSW 19 30 10 16 1018.6 1017.5 0.0
28/10:30am 16.9 14.2 11.6 71 2.9 WSW 17 22 9 12 1018.7 1017.6 0.0
28/10:00am 16.2 13.9 11.6 74 2.5 WSW 15 19 8 10 1018.6 1017.5 0.0
28/09:30am 15.4 12.9 11.2 76 2.3 WSW 15 24 8 13 1019.0 1017.8 0.0
28/09:00am 14.5 11.5 10.7 78 2.0 W 17 22 9 12 1018.7 1017.6 0.0
28/08:30am 14.1 11.6 11.1 82 1.6 W 15 20 8 11 1018.7 1017.6 0.0
28/08:00am 13.4 10.4 10.6 83 1.5 WSW 17 24 9 13 1018.6 1017.5 0.0
28/07:30am 13.0 11.1 10.5 85 1.3 W 11 17 6 9 1018.7 1017.6 0.0
28/07:00am 12.3 10.3 10.0 86 1.2 W 11 19 6 10 1018.5 1017.4 0.0
28/06:30am 11.9 9.0 9.6 86 1.2 WSW 15 20 8 11 1018.5 1017.4 0.0
28/06:00am 11.4 8.8 9.3 87 1.1 W 13 17 7 9 1018.6 1017.5 0.0
28/05:30am 10.8 8.5 8.9 88 1.0 W 11 15 6 8 1018.6 1017.5 0.0
28/05:00am 9.8 7.6 7.9 88 0.9 WNW 9 11 5 6 1018.5 1017.4 0.0
28/04:30am 8.7 6.6 6.7 87 0.9 NW 7 9 4 5 1018.6 1017.5 0.0
28/04:00am 9.2 7.2 7.0 86 1.0 WNW 7 9 4 5 1018.5 1017.4 0.0
28/03:30am 9.3 7.3 7.1 86 1.1 NW 7 9 4 5 1018.5 1017.4 0.0
28/03:00am 9.4 7.6 7.2 86 1.1 NW 6 7 3 4 1018.7 1017.6 0.0
28/02:30am 9.1 7.1 6.9 86 1.0 WNW 7 9 4 5 1019.0 1017.8 0.0
28/02:00am 9.2 7.7 6.8 85 1.1 WNW 4 6 2 3 1019.2 1018.0 0.0
28/01:30am 9.3 7.8 6.6 83 1.3 WNW 4 6 2 3 1019.3 1018.1 0.0
28/01:00am 10.2 8.4 7.3 82 1.4 WSW 6 7 3 4 1019.5 1018.4 0.0
28/12:30am 10.5 8.6 7.4 81 1.5 WSW 7 7 4 4 1019.4 1018.2 0.0
28/12:00am 11.1 9.2 7.6 79 1.7 SW 7 9 4 5 1019.4 1018.2 0.0
 
Date/Time
WST
Temp
°C
App
Temp
°C
Dew
Point
°C
Rel
Hum
%
Delta-T
°C
Wind Press
QNH
hPa
Press
MSL
hPa
Rain since
9am
mm
Dir  Spd
km/h
Gust
km/h
Spd
kts
Gust
kts
27/11:30pm 11.4 9.2 7.9 79 1.7 SW 9 11 5 6 1019.4 1018.2 0.0
27/11:00pm 11.4 9.2 7.7 78 1.8 SW 9 11 5 6 1019.5 1018.4 0.0
27/10:30pm 12.0 10.1 7.7 75 2.1 SW 7 9 4 5 1019.7 1018.6 0.0
27/10:00pm 12.7 10.5 8.0 73 2.3 SW 9 13 5 7 1019.8 1018.7 0.0
27/09:30pm 13.2 10.7 8.1 71 2.6 SW 11 13 6 7 1019.8 1018.7 0.0
27/09:00pm 13.9 11.0 8.1 68 2.9 SSW 13 19 7 10 1019.9 1018.8 0.0
27/08:30pm 14.3 11.3 7.8 65 3.3 SW 13 17 7 9 1019.9 1018.8 0.0
27/08:00pm 14.6 12.6 7.2 61 3.7 SSW 7 11 4 6 1019.8 1018.7 0.0
27/07:30pm 15.1 13.1 6.9 58 4.1 WSW 7 9 4 5 1019.5 1018.4 0.0
27/07:00pm 15.3 13.2 6.8 57 4.2 WSW 7 9 4 5 1019.4 1018.2 0.0
27/06:30pm 16.5 14.4 6.6 52 4.9 WSW 7 9 4 5 1019.4 1018.2 0.0
27/06:00pm 18.3 16.2 6.5 46 5.9 W 7 13 4 7 1019.3 1018.1 0.0
27/05:30pm 19.4 17.3 6.5 43 6.6 W 7 13 4 7 1019.2 1018.0 0.0
27/05:00pm 20.2 17.6 6.2 40 7.1 WNW 9 17 5 9 1019.4 1018.2 0.0
27/04:30pm 20.5 16.8 6.1 39 7.3 WNW 15 20 8 11 1019.5 1018.4 0.0
27/04:00pm 20.5 16.8 6.5 40 7.1 WNW 15 20 8 11 1019.5 1018.4 0.0
27/03:30pm 20.4 17.0 6.0 39 7.3 WNW 13 22 7 12 1019.7 1018.6 0.0
27/03:00pm 20.3 16.4 5.5 38 7.4 WNW 15 22 8 12 1020.0 1018.9 0.0

Other Formats:

Comma delimited format used in spreadsheet applications
http://www.bom.gov.au/fwo/IDW60801/IDW60801.94641.axf

JavaScript Object Notation format (JSON) in row-major order
http://www.bom.gov.au/fwo/IDW60801/IDW60801.94641.json